sensor_id;sensor_type;location;lat;lon;timestamp;temperature;humidity
54006;DHT22;39919;38.160;-122.260;2023-02-08T00:00:25;16.20;60.70
54006;DHT22;39919;38.160;-122.260;2023-02-08T00:02:56;16.10;60.60
54006;DHT22;39919;38.160;-122.260;2023-02-08T00:05:25;16.10;60.90
54006;DHT22;39919;38.160;-122.260;2023-02-08T00:07:54;16.00;60.90
54006;DHT22;39919;38.160;-122.260;2023-02-08T00:10:23;16.00;61.20
54006;DHT22;39919;38.160;-122.260;2023-02-08T00:12:53;16.00;61.20
54006;DHT22;39919;38.160;-122.260;2023-02-08T00:15:22;16.00;62.10
54006;DHT22;39919;38.160;-122.260;2023-02-08T00:17:52;15.90;62.10
54006;DHT22;39919;38.160;-122.260;2023-02-08T00:20:23;15.80;62.60
54006;DHT22;39919;38.160;-122.260;2023-02-08T00:22:52;15.90;62.70
54006;DHT22;39919;38.160;-122.260;2023-02-08T00:25:21;15.80;63.60
54006;DHT22;39919;38.160;-122.260;2023-02-08T00:27:50;15.90;69.70
54006;DHT22;39919;38.160;-122.260;2023-02-08T00:30:20;15.90;69.50
54006;DHT22;39919;38.160;-122.260;2023-02-08T00:32:52;15.80;72.50
54006;DHT22;39919;38.160;-122.260;2023-02-08T00:35:23;15.70;62.90
54006;DHT22;39919;38.160;-122.260;2023-02-08T00:38:01;15.70;64.80
54006;DHT22;39919;38.160;-122.260;2023-02-08T00:40:31;15.90;71.20
54006;DHT22;39919;38.160;-122.260;2023-02-08T00:43:00;15.60;63.10
54006;DHT22;39919;38.160;-122.260;2023-02-08T00:45:29;15.50;62.80
54006;DHT22;39919;38.160;-122.260;2023-02-08T00:48:00;15.60;66.90
54006;DHT22;39919;38.160;-122.260;2023-02-08T00:50:31;15.50;63.20
54006;DHT22;39919;38.160;-122.260;2023-02-08T00:53:00;15.40;63.50
54006;DHT22;39919;38.160;-122.260;2023-02-08T00:55:30;15.50;63.80
54006;DHT22;39919;38.160;-122.260;2023-02-08T00:57:59;15.40;63.60
54006;DHT22;39919;38.160;-122.260;2023-02-08T01:00:28;15.40;63.90
54006;DHT22;39919;38.160;-122.260;2023-02-08T01:03:01;15.40;63.80
54006;DHT22;39919;38.160;-122.260;2023-02-08T01:05:37;15.40;64.20
54006;DHT22;39919;38.160;-122.260;2023-02-08T01:08:09;15.50;67.50
54006;DHT22;39919;38.160;-122.260;2023-02-08T01:10:38;15.30;64.50
54006;DHT22;39919;38.160;-122.260;2023-02-08T01:13:07;15.30;64.50
54006;DHT22;39919;38.160;-122.260;2023-02-08T01:15:38;15.20;64.80
54006;DHT22;39919;38.160;-122.260;2023-02-08T01:18:07;15.20;65.90
54006;DHT22;39919;38.160;-122.260;2023-02-08T01:20:38;14.20;81.40
54006;DHT22;39919;38.160;-122.260;2023-02-08T01:23:07;15.10;81.30
54006;DHT22;39919;38.160;-122.260;2023-02-08T01:25:36;14.80;87.80
54006;DHT22;39919;38.160;-122.260;2023-02-08T01:30:41;14.90;93.70
54006;DHT22;39919;38.160;-122.260;2023-02-08T01:33:10;14.90;93.10
54006;DHT22;39919;38.160;-122.260;2023-02-08T01:50:50;14.50;91.70
54006;DHT22;39919;38.160;-122.260;2023-02-08T01:53:38;14.40;92.90
54006;DHT22;39919;38.160;-122.260;2023-02-08T01:56:28;14.40;93.40
54006;DHT22;39919;38.160;-122.260;2023-02-08T01:59:04;14.30;93.80
54006;DHT22;39919;38.160;-122.260;2023-02-08T02:02:15;14.20;93.90
54006;DHT22;39919;38.160;-122.260;2023-02-08T02:04:44;14.10;94.00
54006;DHT22;39919;38.160;-122.260;2023-02-08T02:07:17;14.00;93.70
54006;DHT22;39919;38.160;-122.260;2023-02-08T02:09:52;14.00;93.50
54006;DHT22;39919;38.160;-122.260;2023-02-08T02:12:23;13.90;93.40
54006;DHT22;39919;38.160;-122.260;2023-02-08T02:14:53;13.80;93.30
54006;DHT22;39919;38.160;-122.260;2023-02-08T02:17:25;13.70;93.20
54006;DHT22;39919;38.160;-122.260;2023-02-08T02:20:06;13.60;93.20
54006;DHT22;39919;38.160;-122.260;2023-02-08T02:23:15;13.60;93.30
54006;DHT22;39919;38.160;-122.260;2023-02-08T02:29:25;13.40;93.50
54006;DHT22;39919;38.160;-122.260;2023-02-08T02:32:18;13.30;93.60
54006;DHT22;39919;38.160;-122.260;2023-02-08T02:34:51;13.20;93.60
54006;DHT22;39919;38.160;-122.260;2023-02-08T02:37:32;13.10;93.60
54006;DHT22;39919;38.160;-122.260;2023-02-08T02:40:11;13.10;93.60
54006;DHT22;39919;38.160;-122.260;2023-02-08T02:42:53;13.00;93.50
54006;DHT22;39919;38.160;-122.260;2023-02-08T02:45:46;12.90;93.60
54006;DHT22;39919;38.160;-122.260;2023-02-08T02:48:21;12.80;93.70
54006;DHT22;39919;38.160;-122.260;2023-02-08T02:50:57;12.80;93.80
54006;DHT22;39919;38.160;-122.260;2023-02-08T02:53:33;12.70;94.30
54006;DHT22;39919;38.160;-122.260;2023-02-08T02:56:07;12.60;95.20
54006;DHT22;39919;38.160;-122.260;2023-02-08T02:58:40;12.60;95.10
54006;DHT22;39919;38.160;-122.260;2023-02-08T03:01:10;12.50;94.80
54006;DHT22;39919;38.160;-122.260;2023-02-08T03:03:41;12.40;95.10
54006;DHT22;39919;38.160;-122.260;2023-02-08T03:06:13;12.40;95.10
54006;DHT22;39919;38.160;-122.260;2023-02-08T03:09:06;12.30;94.80
54006;DHT22;39919;38.160;-122.260;2023-02-08T03:11:37;12.20;94.70
54006;DHT22;39919;38.160;-122.260;2023-02-08T03:14:26;12.10;94.60
54006;DHT22;39919;38.160;-122.260;2023-02-08T03:17:05;12.10;94.60
54006;DHT22;39919;38.160;-122.260;2023-02-08T03:19:44;12.10;94.60
54006;DHT22;39919;38.160;-122.260;2023-02-08T03:22:18;12.00;94.70
54006;DHT22;39919;38.160;-122.260;2023-02-08T03:24:57;11.90;94.70
54006;DHT22;39919;38.160;-122.260;2023-02-08T03:27:29;11.80;94.60
54006;DHT22;39919;38.160;-122.260;2023-02-08T03:30:02;11.80;94.80
54006;DHT22;39919;38.160;-122.260;2023-02-08T03:32:39;11.70;94.80
54006;DHT22;39919;38.160;-122.260;2023-02-08T03:35:15;11.70;94.70
54006;DHT22;39919;38.160;-122.260;2023-02-08T03:37:52;11.60;94.80
54006;DHT22;39919;38.160;-122.260;2023-02-08T03:40:26;11.60;95.20
54006;DHT22;39919;38.160;-122.260;2023-02-08T03:42:57;11.50;95.40
54006;DHT22;39919;38.160;-122.260;2023-02-08T03:45:30;11.40;95.60
54006;DHT22;39919;38.160;-122.260;2023-02-08T03:48:03;11.40;94.80
54006;DHT22;39919;38.160;-122.260;2023-02-08T03:50:38;11.40;94.90
54006;DHT22;39919;38.160;-122.260;2023-02-08T03:53:10;11.30;94.70
54006;DHT22;39919;38.160;-122.260;2023-02-08T03:55:42;11.20;94.60
54006;DHT22;39919;38.160;-122.260;2023-02-08T03:58:19;11.10;94.50
54006;DHT22;39919;38.160;-122.260;2023-02-08T04:01:02;11.10;94.40
54006;DHT22;39919;38.160;-122.260;2023-02-08T04:03:38;11.10;94.30
54006;DHT22;39919;38.160;-122.260;2023-02-08T04:06:12;11.00;94.30
54006;DHT22;39919;38.160;-122.260;2023-02-08T04:08:41;11.00;94.30
54006;DHT22;39919;38.160;-122.260;2023-02-08T04:11:10;10.90;94.20
54006;DHT22;39919;38.160;-122.260;2023-02-08T04:13:39;10.90;94.40
54006;DHT22;39919;38.160;-122.260;2023-02-08T04:16:09;10.80;94.80
54006;DHT22;39919;38.160;-122.260;2023-02-08T04:18:49;10.70;94.70
54006;DHT22;39919;38.160;-122.260;2023-02-08T04:21:20;10.80;94.70
54006;DHT22;39919;38.160;-122.260;2023-02-08T04:23:49;10.70;94.70
54006;DHT22;39919;38.160;-122.260;2023-02-08T04:26:18;10.60;94.80
54006;DHT22;39919;38.160;-122.260;2023-02-08T04:28:47;10.60;96.80
54006;DHT22;39919;38.160;-122.260;2023-02-08T04:31:19;10.60;95.00
54006;DHT22;39919;38.160;-122.260;2023-02-08T04:33:48;10.40;79.90
54006;DHT22;39919;38.160;-122.260;2023-02-08T04:36:19;10.40;80.50
54006;DHT22;39919;38.160;-122.260;2023-02-08T04:38:49;10.30;80.40
54006;DHT22;39919;38.160;-122.260;2023-02-08T04:41:18;10.30;81.40
54006;DHT22;39919;38.160;-122.260;2023-02-08T04:43:47;10.30;81.80
54006;DHT22;39919;38.160;-122.260;2023-02-08T04:46:16;10.20;81.70
54006;DHT22;39919;38.160;-122.260;2023-02-08T04:48:45;10.10;82.00
54006;DHT22;39919;38.160;-122.260;2023-02-08T04:51:15;10.10;82.50
54006;DHT22;39919;38.160;-122.260;2023-02-08T04:53:48;10.10;82.90
54006;DHT22;39919;38.160;-122.260;2023-02-08T04:56:20;10.00;82.80
54006;DHT22;39919;38.160;-122.260;2023-02-08T04:58:49;10.00;82.90
54006;DHT22;39919;38.160;-122.260;2023-02-08T05:01:20;10.00;83.50
54006;DHT22;39919;38.160;-122.260;2023-02-08T05:03:50;9.90;83.50
54006;DHT22;39919;38.160;-122.260;2023-02-08T05:06:19;9.90;83.50
54006;DHT22;39919;38.160;-122.260;2023-02-08T05:08:50;9.80;83.40
54006;DHT22;39919;38.160;-122.260;2023-02-08T05:11:22;9.80;83.40
54006;DHT22;39919;38.160;-122.260;2023-02-08T05:13:52;9.80;83.70
54006;DHT22;39919;38.160;-122.260;2023-02-08T05:16:21;9.70;84.10
54006;DHT22;39919;38.160;-122.260;2023-02-08T05:18:50;9.70;84.90
54006;DHT22;39919;38.160;-122.260;2023-02-08T05:21:20;9.70;85.90
54006;DHT22;39919;38.160;-122.260;2023-02-08T05:26:38;9.60;86.10
54006;DHT22;39919;38.160;-122.260;2023-02-08T05:29:07;9.60;86.30
54006;DHT22;39919;38.160;-122.260;2023-02-08T05:31:36;9.60;86.20
54006;DHT22;39919;38.160;-122.260;2023-02-08T05:34:09;9.50;86.10
54006;DHT22;39919;38.160;-122.260;2023-02-08T05:37:14;9.50;86.20
54006;DHT22;39919;38.160;-122.260;2023-02-08T05:39:48;9.50;86.30
54006;DHT22;39919;38.160;-122.260;2023-02-08T05:42:20;9.50;86.50
54006;DHT22;39919;38.160;-122.260;2023-02-08T05:44:52;9.40;86.40
54006;DHT22;39919;38.160;-122.260;2023-02-08T05:47:21;9.40;87.00
54006;DHT22;39919;38.160;-122.260;2023-02-08T05:49:53;9.40;87.10
54006;DHT22;39919;38.160;-122.260;2023-02-08T05:52:22;9.30;87.60
54006;DHT22;39919;38.160;-122.260;2023-02-08T05:55:02;9.30;88.20
54006;DHT22;39919;38.160;-122.260;2023-02-08T05:58:01;9.30;88.80
54006;DHT22;39919;38.160;-122.260;2023-02-08T06:00:30;9.20;88.80
54006;DHT22;39919;38.160;-122.260;2023-02-08T06:02:59;9.20;88.80
54006;DHT22;39919;38.160;-122.260;2023-02-08T06:05:29;9.20;89.10
54006;DHT22;39919;38.160;-122.260;2023-02-08T06:07:58;9.10;88.40
54006;DHT22;39919;38.160;-122.260;2023-02-08T06:10:33;9.00;88.70
54006;DHT22;39919;38.160;-122.260;2023-02-08T06:13:03;9.00;88.80
54006;DHT22;39919;38.160;-122.260;2023-02-08T06:15:32;9.00;88.80
54006;DHT22;39919;38.160;-122.260;2023-02-08T06:18:04;8.90;89.30
54006;DHT22;39919;38.160;-122.260;2023-02-08T06:20:36;8.90;89.50
54006;DHT22;39919;38.160;-122.260;2023-02-08T06:23:06;8.80;89.60
54006;DHT22;39919;38.160;-122.260;2023-02-08T06:25:39;8.80;89.70
54006;DHT22;39919;38.160;-122.260;2023-02-08T06:28:08;8.80;90.10
54006;DHT22;39919;38.160;-122.260;2023-02-08T06:30:38;8.70;90.40
54006;DHT22;39919;38.160;-122.260;2023-02-08T06:33:07;8.70;90.80
54006;DHT22;39919;38.160;-122.260;2023-02-08T06:35:36;8.60;90.80
54006;DHT22;39919;38.160;-122.260;2023-02-08T06:40:54;8.60;91.00
54006;DHT22;39919;38.160;-122.260;2023-02-08T06:43:23;8.50;91.10
54006;DHT22;39919;38.160;-122.260;2023-02-08T06:45:52;8.50;91.20
54006;DHT22;39919;38.160;-122.260;2023-02-08T06:48:21;8.50;91.40
54006;DHT22;39919;38.160;-122.260;2023-02-08T06:50:52;8.40;92.10
54006;DHT22;39919;38.160;-122.260;2023-02-08T06:53:21;8.40;93.40
54006;DHT22;39919;38.160;-122.260;2023-02-08T06:55:52;8.40;93.90
54006;DHT22;39919;38.160;-122.260;2023-02-08T06:58:22;8.30;94.00
54006;DHT22;39919;38.160;-122.260;2023-02-08T07:03:42;8.30;93.90
54006;DHT22;39919;38.160;-122.260;2023-02-08T07:06:14;8.20;93.80
54006;DHT22;39919;38.160;-122.260;2023-02-08T07:08:44;8.20;94.10
54006;DHT22;39919;38.160;-122.260;2023-02-08T07:11:18;8.20;94.20
54006;DHT22;39919;38.160;-122.260;2023-02-08T07:13:51;8.20;94.00
54006;DHT22;39919;38.160;-122.260;2023-02-08T07:16:20;8.10;93.80
54006;DHT22;39919;38.160;-122.260;2023-02-08T07:18:49;8.10;93.80
54006;DHT22;39919;38.160;-122.260;2023-02-08T07:21:19;8.10;93.70
54006;DHT22;39919;38.160;-122.260;2023-02-08T07:23:48;8.00;93.40
54006;DHT22;39919;38.160;-122.260;2023-02-08T07:26:22;8.00;93.70
54006;DHT22;39919;38.160;-122.260;2023-02-08T07:28:51;7.90;94.10
54006;DHT22;39919;38.160;-122.260;2023-02-08T07:31:20;7.90;94.30
54006;DHT22;39919;38.160;-122.260;2023-02-08T07:33:49;7.90;95.10
54006;DHT22;39919;38.160;-122.260;2023-02-08T07:36:18;7.90;95.50
54006;DHT22;39919;38.160;-122.260;2023-02-08T07:38:48;7.80;95.70
54006;DHT22;39919;38.160;-122.260;2023-02-08T07:41:17;7.80;96.30
54006;DHT22;39919;38.160;-122.260;2023-02-08T07:43:48;7.80;96.50
54006;DHT22;39919;38.160;-122.260;2023-02-08T07:46:18;7.70;96.50
54006;DHT22;39919;38.160;-122.260;2023-02-08T07:48:53;7.70;96.90
54006;DHT22;39919;38.160;-122.260;2023-02-08T07:51:22;7.60;97.40
54006;DHT22;39919;38.160;-122.260;2023-02-08T07:53:52;7.60;97.20
54006;DHT22;39919;38.160;-122.260;2023-02-08T07:56:21;7.60;97.20
54006;DHT22;39919;38.160;-122.260;2023-02-08T07:58:54;7.60;97.10
54006;DHT22;39919;38.160;-122.260;2023-02-08T08:01:23;7.50;96.70
54006;DHT22;39919;38.160;-122.260;2023-02-08T08:03:53;7.50;96.70
54006;DHT22;39919;38.160;-122.260;2023-02-08T08:06:22;7.40;96.80
54006;DHT22;39919;38.160;-122.260;2023-02-08T08:08:52;7.40;96.90
54006;DHT22;39919;38.160;-122.260;2023-02-08T08:11:23;7.40;97.00
54006;DHT22;39919;38.160;-122.260;2023-02-08T08:13:54;7.40;97.00
54006;DHT22;39919;38.160;-122.260;2023-02-08T08:16:23;7.40;97.00
54006;DHT22;39919;38.160;-122.260;2023-02-08T08:18:53;7.30;97.00
54006;DHT22;39919;38.160;-122.260;2023-02-08T08:21:22;7.30;97.10
54006;DHT22;39919;38.160;-122.260;2023-02-08T08:23:51;7.20;97.20
54006;DHT22;39919;38.160;-122.260;2023-02-08T08:26:29;7.20;97.20
54006;DHT22;39919;38.160;-122.260;2023-02-08T08:29:00;7.20;97.10
54006;DHT22;39919;38.160;-122.260;2023-02-08T08:31:32;7.10;96.90
54006;DHT22;39919;38.160;-122.260;2023-02-08T08:34:02;7.10;97.30
54006;DHT22;39919;38.160;-122.260;2023-02-08T08:39:01;7.10;97.40
54006;DHT22;39919;38.160;-122.260;2023-02-08T08:41:30;7.00;97.70
54006;DHT22;39919;38.160;-122.260;2023-02-08T08:44:01;7.00;97.70
54006;DHT22;39919;38.160;-122.260;2023-02-08T08:46:33;6.90;97.70
54006;DHT22;39919;38.160;-122.260;2023-02-08T08:49:02;6.90;97.80
54006;DHT22;39919;38.160;-122.260;2023-02-08T08:51:32;6.90;97.90
54006;DHT22;39919;38.160;-122.260;2023-02-08T08:54:01;6.80;97.80
54006;DHT22;39919;38.160;-122.260;2023-02-08T08:56:31;6.80;97.80
54006;DHT22;39919;38.160;-122.260;2023-02-08T08:59:02;6.80;97.60
54006;DHT22;39919;38.160;-122.260;2023-02-08T09:01:31;6.80;97.60
54006;DHT22;39919;38.160;-122.260;2023-02-08T09:04:00;6.70;97.50
54006;DHT22;39919;38.160;-122.260;2023-02-08T09:06:30;6.70;97.50
54006;DHT22;39919;38.160;-122.260;2023-02-08T09:08:59;6.70;97.40
54006;DHT22;39919;38.160;-122.260;2023-02-08T09:11:28;6.60;97.40
54006;DHT22;39919;38.160;-122.260;2023-02-08T09:14:02;6.60;97.30
54006;DHT22;39919;38.160;-122.260;2023-02-08T09:16:32;6.50;97.30
54006;DHT22;39919;38.160;-122.260;2023-02-08T09:19:05;6.50;97.40
54006;DHT22;39919;38.160;-122.260;2023-02-08T09:21:35;6.50;97.70
54006;DHT22;39919;38.160;-122.260;2023-02-08T09:24:07;6.50;98.00
54006;DHT22;39919;38.160;-122.260;2023-02-08T09:26:38;6.40;98.20
54006;DHT22;39919;38.160;-122.260;2023-02-08T09:29:09;6.40;98.50
54006;DHT22;39919;38.160;-122.260;2023-02-08T09:31:38;6.40;98.60
54006;DHT22;39919;38.160;-122.260;2023-02-08T09:34:08;6.40;99.10
54006;DHT22;39919;38.160;-122.260;2023-02-08T09:36:38;6.30;99.10
54006;DHT22;39919;38.160;-122.260;2023-02-08T09:39:09;6.30;99.00
54006;DHT22;39919;38.160;-122.260;2023-02-08T09:41:53;6.30;99.00
54006;DHT22;39919;38.160;-122.260;2023-02-08T09:44:30;6.20;99.00
54006;DHT22;39919;38.160;-122.260;2023-02-08T09:47:05;6.20;99.30
54006;DHT22;39919;38.160;-122.260;2023-02-08T09:49:38;6.20;99.50
54006;DHT22;39919;38.160;-122.260;2023-02-08T09:52:11;6.20;99.40
54006;DHT22;39919;38.160;-122.260;2023-02-08T09:54:43;6.10;99.30
54006;DHT22;39919;38.160;-122.260;2023-02-08T09:57:17;6.10;99.10
54006;DHT22;39919;38.160;-122.260;2023-02-08T09:59:53;6.10;99.00
54006;DHT22;39919;38.160;-122.260;2023-02-08T10:02:25;6.00;98.80
54006;DHT22;39919;38.160;-122.260;2023-02-08T10:04:57;6.00;98.70
54006;DHT22;39919;38.160;-122.260;2023-02-08T10:07:31;6.00;98.70
54006;DHT22;39919;38.160;-122.260;2023-02-08T10:10:07;5.90;98.60
54006;DHT22;39919;38.160;-122.260;2023-02-08T10:12:40;5.90;98.60
54006;DHT22;39919;38.160;-122.260;2023-02-08T10:15:25;5.90;98.40
54006;DHT22;39919;38.160;-122.260;2023-02-08T10:18:24;6.10;99.90
54006;DHT22;39919;38.160;-122.260;2023-02-08T10:21:16;5.80;98.80
54006;DHT22;39919;38.160;-122.260;2023-02-08T10:24:04;5.80;99.10
54006;DHT22;39919;38.160;-122.260;2023-02-08T10:26:40;5.80;99.20
54006;DHT22;39919;38.160;-122.260;2023-02-08T10:29:33;5.80;99.40
54006;DHT22;39919;38.160;-122.260;2023-02-08T10:32:19;5.70;99.50
54006;DHT22;39919;38.160;-122.260;2023-02-08T10:34:55;5.70;99.80
54006;DHT22;39919;38.160;-122.260;2023-02-08T10:37:31;5.70;99.90
54006;DHT22;39919;38.160;-122.260;2023-02-08T10:40:14;5.70;99.90
54006;DHT22;39919;38.160;-122.260;2023-02-08T10:42:54;5.60;99.90
54006;DHT22;39919;38.160;-122.260;2023-02-08T10:45:29;5.60;99.90
54006;DHT22;39919;38.160;-122.260;2023-02-08T10:48:04;5.60;99.90
54006;DHT22;39919;38.160;-122.260;2023-02-08T10:50:38;5.60;99.90
54006;DHT22;39919;38.160;-122.260;2023-02-08T10:53:12;5.50;99.90
54006;DHT22;39919;38.160;-122.260;2023-02-08T10:55:44;5.60;99.90
54006;DHT22;39919;38.160;-122.260;2023-02-08T10:58:15;5.50;99.90
54006;DHT22;39919;38.160;-122.260;2023-02-08T11:00:45;5.50;99.90
54006;DHT22;39919;38.160;-122.260;2023-02-08T11:03:20;5.50;99.90
54006;DHT22;39919;38.160;-122.260;2023-02-08T11:05:53;5.40;99.90
54006;DHT22;39919;38.160;-122.260;2023-02-08T11:08:24;5.40;99.90
54006;DHT22;39919;38.160;-122.260;2023-02-08T11:10:59;5.40;99.90
54006;DHT22;39919;38.160;-122.260;2023-02-08T11:13:32;5.40;99.90
54006;DHT22;39919;38.160;-122.260;2023-02-08T11:16:05;5.40;99.90
54006;DHT22;39919;38.160;-122.260;2023-02-08T11:18:38;5.40;99.90
54006;DHT22;39919;38.160;-122.260;2023-02-08T11:21:09;5.30;99.90
54006;DHT22;39919;38.160;-122.260;2023-02-08T11:23:50;5.30;99.90
54006;DHT22;39919;38.160;-122.260;2023-02-08T11:26:23;5.30;99.90
54006;DHT22;39919;38.160;-122.260;2023-02-08T11:29:00;5.20;99.90
54006;DHT22;39919;38.160;-122.260;2023-02-08T11:31:30;5.20;99.90
54006;DHT22;39919;38.160;-122.260;2023-02-08T11:34:04;5.20;99.90
54006;DHT22;39919;38.160;-122.260;2023-02-08T11:36:35;5.20;99.90
54006;DHT22;39919;38.160;-122.260;2023-02-08T11:39:28;5.10;99.90
54006;DHT22;39919;38.160;-122.260;2023-02-08T11:42:00;5.10;99.90
54006;DHT22;39919;38.160;-122.260;2023-02-08T11:44:32;5.10;99.90
54006;DHT22;39919;38.160;-122.260;2023-02-08T11:47:02;5.10;99.90
54006;DHT22;39919;38.160;-122.260;2023-02-08T11:49:37;5.10;99.90
54006;DHT22;39919;38.160;-122.260;2023-02-08T11:52:18;5.00;99.90
54006;DHT22;39919;38.160;-122.260;2023-02-08T11:55:10;5.00;99.90
54006;DHT22;39919;38.160;-122.260;2023-02-08T11:57:51;5.00;99.90
54006;DHT22;39919;38.160;-122.260;2023-02-08T12:00:26;5.00;99.90
54006;DHT22;39919;38.160;-122.260;2023-02-08T12:02:59;4.90;99.90
54006;DHT22;39919;38.160;-122.260;2023-02-08T12:05:39;4.90;99.90
54006;DHT22;39919;38.160;-122.260;2023-02-08T12:08:14;4.90;99.90
54006;DHT22;39919;38.160;-122.260;2023-02-08T12:10:54;4.80;99.80
54006;DHT22;39919;38.160;-122.260;2023-02-08T12:13:47;4.80;99.90
54006;DHT22;39919;38.160;-122.260;2023-02-08T12:16:29;4.80;99.90
54006;DHT22;39919;38.160;-122.260;2023-02-08T12:19:19;4.80;99.90
54006;DHT22;39919;38.160;-122.260;2023-02-08T12:21:56;4.80;99.90
54006;DHT22;39919;38.160;-122.260;2023-02-08T12:24:34;4.80;99.90
54006;DHT22;39919;38.160;-122.260;2023-02-08T12:27:15;4.80;99.90
54006;DHT22;39919;38.160;-122.260;2023-02-08T12:29:57;4.80;99.90
54006;DHT22;39919;38.160;-122.260;2023-02-08T12:32:57;4.80;99.90
54006;DHT22;39919;38.160;-122.260;2023-02-08T12:35:43;4.80;99.90
54006;DHT22;39919;38.160;-122.260;2023-02-08T12:38:22;4.80;99.90
54006;DHT22;39919;38.160;-122.260;2023-02-08T12:41:19;4.80;99.90
54006;DHT22;39919;38.160;-122.260;2023-02-08T12:43:55;4.80;99.90
54006;DHT22;39919;38.160;-122.260;2023-02-08T12:46:30;4.80;99.90
54006;DHT22;39919;38.160;-122.260;2023-02-08T12:51:53;4.80;99.90
54006;DHT22;39919;38.160;-122.260;2023-02-08T12:54:32;4.80;99.90
54006;DHT22;39919;38.160;-122.260;2023-02-08T12:57:03;4.80;99.90
54006;DHT22;39919;38.160;-122.260;2023-02-08T12:59:37;4.80;99.90
54006;DHT22;39919;38.160;-122.260;2023-02-08T13:02:13;4.80;99.90
54006;DHT22;39919;38.160;-122.260;2023-02-08T13:04:47;4.80;99.90
54006;DHT22;39919;38.160;-122.260;2023-02-08T13:07:21;4.80;99.90
54006;DHT22;39919;38.160;-122.260;2023-02-08T13:09:58;4.80;99.90
54006;DHT22;39919;38.160;-122.260;2023-02-08T13:15:29;4.80;99.90
54006;DHT22;39919;38.160;-122.260;2023-02-08T13:18:11;4.80;99.90
54006;DHT22;39919;38.160;-122.260;2023-02-08T13:20:45;4.70;99.90
54006;DHT22;39919;38.160;-122.260;2023-02-08T13:23:21;4.70;99.90
54006;DHT22;39919;38.160;-122.260;2023-02-08T13:25:55;4.70;99.90
54006;DHT22;39919;38.160;-122.260;2023-02-08T13:28:26;4.70;99.90
54006;DHT22;39919;38.160;-122.260;2023-02-08T13:30:58;4.70;99.90
54006;DHT22;39919;38.160;-122.260;2023-02-08T13:33:42;4.70;99.90
54006;DHT22;39919;38.160;-122.260;2023-02-08T13:36:23;4.70;99.90
54006;DHT22;39919;38.160;-122.260;2023-02-08T13:38:53;4.60;99.90
54006;DHT22;39919;38.160;-122.260;2023-02-08T13:41:25;4.60;99.90
54006;DHT22;39919;38.160;-122.260;2023-02-08T13:43:57;4.60;99.90
54006;DHT22;39919;38.160;-122.260;2023-02-08T13:46:28;4.50;99.90
54006;DHT22;39919;38.160;-122.260;2023-02-08T13:49:03;4.50;99.90
54006;DHT22;39919;38.160;-122.260;2023-02-08T13:51:52;4.50;99.90
54006;DHT22;39919;38.160;-122.260;2023-02-08T13:54:21;4.50;99.90
54006;DHT22;39919;38.160;-122.260;2023-02-08T13:56:53;4.50;99.90
54006;DHT22;39919;38.160;-122.260;2023-02-08T13:59:32;4.40;99.90
54006;DHT22;39919;38.160;-122.260;2023-02-08T14:02:28;4.40;99.90
54006;DHT22;39919;38.160;-122.260;2023-02-08T14:05:32;4.40;99.90
54006;DHT22;39919;38.160;-122.260;2023-02-08T14:08:03;4.30;99.90
54006;DHT22;39919;38.160;-122.260;2023-02-08T14:10:37;4.30;99.90
54006;DHT22;39919;38.160;-122.260;2023-02-08T14:13:22;4.30;99.90
54006;DHT22;39919;38.160;-122.260;2023-02-08T14:16:23;4.30;99.90
54006;DHT22;39919;38.160;-122.260;2023-02-08T14:18:57;4.20;99.90
54006;DHT22;39919;38.160;-122.260;2023-02-08T14:21:33;4.20;99.90
54006;DHT22;39919;38.160;-122.260;2023-02-08T14:24:05;4.20;99.90
54006;DHT22;39919;38.160;-122.260;2023-02-08T14:26:36;4.20;99.90
54006;DHT22;39919;38.160;-122.260;2023-02-08T14:29:07;4.10;99.90
54006;DHT22;39919;38.160;-122.260;2023-02-08T14:31:38;4.10;99.90
54006;DHT22;39919;38.160;-122.260;2023-02-08T14:34:22;4.10;99.90
54006;DHT22;39919;38.160;-122.260;2023-02-08T14:37:00;4.10;99.90
54006;DHT22;39919;38.160;-122.260;2023-02-08T14:39:31;4.00;99.90
54006;DHT22;39919;38.160;-122.260;2023-02-08T14:42:01;4.00;99.90
54006;DHT22;39919;38.160;-122.260;2023-02-08T14:44:58;4.00;99.90
54006;DHT22;39919;38.160;-122.260;2023-02-08T14:50:38;4.00;99.90
54006;DHT22;39919;38.160;-122.260;2023-02-08T14:53:30;4.00;99.90
54006;DHT22;39919;38.160;-122.260;2023-02-08T14:56:20;4.00;99.90
54006;DHT22;39919;38.160;-122.260;2023-02-08T14:58:52;4.00;99.90
54006;DHT22;39919;38.160;-122.260;2023-02-08T15:01:35;4.00;99.90
54006;DHT22;39919;38.160;-122.260;2023-02-08T15:04:06;3.90;99.90
54006;DHT22;39919;38.160;-122.260;2023-02-08T15:09:38;3.90;99.90
54006;DHT22;39919;38.160;-122.260;2023-02-08T15:12:13;3.90;99.90
54006;DHT22;39919;38.160;-122.260;2023-02-08T15:14:43;3.90;99.90
54006;DHT22;39919;38.160;-122.260;2023-02-08T15:17:32;3.90;99.90
54006;DHT22;39919;38.160;-122.260;2023-02-08T15:20:04;3.90;99.90
54006;DHT22;39919;38.160;-122.260;2023-02-08T15:22:35;3.90;99.90
54006;DHT22;39919;38.160;-122.260;2023-02-08T15:25:21;3.90;99.90
54006;DHT22;39919;38.160;-122.260;2023-02-08T15:27:55;3.90;99.90
54006;DHT22;39919;38.160;-122.260;2023-02-08T15:30:31;3.90;99.90
54006;DHT22;39919;38.160;-122.260;2023-02-08T15:33:07;3.90;99.90
54006;DHT22;39919;38.160;-122.260;2023-02-08T15:35:37;3.90;99.90
54006;DHT22;39919;38.160;-122.260;2023-02-08T15:38:15;3.90;99.90
54006;DHT22;39919;38.160;-122.260;2023-02-08T15:40:59;3.90;99.90
54006;DHT22;39919;38.160;-122.260;2023-02-08T15:43:32;3.90;99.90
54006;DHT22;39919;38.160;-122.260;2023-02-08T15:46:03;4.00;99.90
54006;DHT22;39919;38.160;-122.260;2023-02-08T15:48:43;4.00;99.90
54006;DHT22;39919;38.160;-122.260;2023-02-08T15:51:14;4.00;99.90
54006;DHT22;39919;38.160;-122.260;2023-02-08T15:53:47;4.10;99.90
54006;DHT22;39919;38.160;-122.260;2023-02-08T15:56:19;4.10;99.90
54006;DHT22;39919;38.160;-122.260;2023-02-08T15:58:51;4.20;99.90
54006;DHT22;39919;38.160;-122.260;2023-02-08T16:01:22;4.20;99.90
54006;DHT22;39919;38.160;-122.260;2023-02-08T16:03:55;4.30;99.90
54006;DHT22;39919;38.160;-122.260;2023-02-08T16:06:26;4.30;99.90
54006;DHT22;39919;38.160;-122.260;2023-02-08T16:09:00;4.40;99.90
54006;DHT22;39919;38.160;-122.260;2023-02-08T16:11:31;4.50;99.90
54006;DHT22;39919;38.160;-122.260;2023-02-08T16:14:04;4.60;99.90
54006;DHT22;39919;38.160;-122.260;2023-02-08T16:16:41;4.70;99.90
54006;DHT22;39919;38.160;-122.260;2023-02-08T16:19:23;4.80;99.90
54006;DHT22;39919;38.160;-122.260;2023-02-08T16:21:55;4.90;99.90
54006;DHT22;39919;38.160;-122.260;2023-02-08T16:24:27;5.10;99.90